sensor_id;sensor_type;location;lat;lon;timestamp;pressure;altitude;pressure_sealevel;temperature;humidity
21185;BME280;18176;49.502;11.754;2023-01-26T00:00:25;97471.38;;;5.61;59.31
21185;BME280;18176;49.502;11.754;2023-01-26T00:04:26;97448.19;;;5.50;59.18
21185;BME280;18176;49.502;11.754;2023-01-26T00:08:26;97467.03;;;5.39;59.91
21185;BME280;18176;49.502;11.754;2023-01-26T00:12:27;97457.94;;;5.20;60.39
21185;BME280;18176;49.502;11.754;2023-01-26T00:16:29;97449.03;;;5.36;60.08
21185;BME280;18176;49.502;11.754;2023-01-26T00:20:30;97441.16;;;5.36;60.09
21185;BME280;18176;49.502;11.754;2023-01-26T00:24:30;97434.94;;;5.58;59.28
21185;BME280;18176;49.502;11.754;2023-01-26T00:28:30;97432.44;;;5.71;59.18
21185;BME280;18176;49.502;11.754;2023-01-26T00:32:34;97411.66;;;5.76;59.10
21185;BME280;18176;49.502;11.754;2023-01-26T00:36:34;97404.34;;;5.72;59.10
21185;BME280;18176;49.502;11.754;2023-01-26T00:40:34;97411.06;;;5.95;58.48
21185;BME280;18176;49.502;11.754;2023-01-26T00:44:36;97408.94;;;6.05;58.30
21185;BME280;18176;49.502;11.754;2023-01-26T00:48:39;97407.22;;;6.19;58.13
21185;BME280;18176;49.502;11.754;2023-01-26T00:52:40;97407.19;;;6.12;58.05
21185;BME280;18176;49.502;11.754;2023-01-26T00:56:40;97410.38;;;5.87;58.57
21185;BME280;18176;49.502;11.754;2023-01-26T01:00:40;97401.84;;;5.63;59.07
21185;BME280;18176;49.502;11.754;2023-01-26T01:04:42;97403.38;;;5.58;59.36
21185;BME280;18176;49.502;11.754;2023-01-26T01:08:42;97400.66;;;5.66;59.04
21185;BME280;18176;49.502;11.754;2023-01-26T01:12:44;97392.00;;;5.72;58.95
21185;BME280;18176;49.502;11.754;2023-01-26T01:16:45;97383.34;;;5.78;58.92
21185;BME280;18176;49.502;11.754;2023-01-26T01:20:48;97352.81;;;5.56;58.79
21185;BME280;18176;49.502;11.754;2023-01-26T01:24:48;97374.19;;;5.89;58.70
21185;BME280;18176;49.502;11.754;2023-01-26T01:28:48;97368.47;;;5.85;58.64
21185;BME280;18176;49.502;11.754;2023-01-26T01:32:48;97362.09;;;5.94;58.58
21185;BME280;18176;49.502;11.754;2023-01-26T01:36:52;97371.91;;;6.07;58.15
21185;BME280;18176;49.502;11.754;2023-01-26T01:40:54;97377.88;;;5.94;58.23
21185;BME280;18176;49.502;11.754;2023-01-26T01:45:35;97375.97;;;5.67;58.84
21185;BME280;18176;49.502;11.754;2023-01-26T01:49:41;97349.56;;;5.75;58.83
21185;BME280;18176;49.502;11.754;2023-01-26T01:53:51;97360.84;;;5.90;58.64
21185;BME280;18176;49.502;11.754;2023-01-26T01:57:54;97361.72;;;5.97;58.58
21185;BME280;18176;49.502;11.754;2023-01-26T02:01:57;97353.97;;;5.89;58.67
21185;BME280;18176;49.502;11.754;2023-01-26T02:06:05;97338.28;;;5.81;58.32
21185;BME280;18176;49.502;11.754;2023-01-26T02:10:10;97354.19;;;5.94;58.37
21185;BME280;18176;49.502;11.754;2023-01-26T02:14:17;97353.31;;;5.87;58.43
21185;BME280;18176;49.502;11.754;2023-01-26T02:18:18;97344.88;;;5.71;59.09
21185;BME280;18176;49.502;11.754;2023-01-26T02:22:34;97343.25;;;5.69;59.25
21185;BME280;18176;49.502;11.754;2023-01-26T02:26:39;97336.78;;;5.72;59.39
21185;BME280;18176;49.502;11.754;2023-01-26T02:30:39;97336.03;;;5.78;59.05
21185;BME280;18176;49.502;11.754;2023-01-26T02:34:39;97319.78;;;5.68;58.97
21185;BME280;18176;49.502;11.754;2023-01-26T02:38:47;97318.75;;;5.90;58.79
21185;BME280;18176;49.502;11.754;2023-01-26T02:42:52;97319.00;;;5.95;58.73
21185;BME280;18176;49.502;11.754;2023-01-26T02:46:55;97313.31;;;5.92;58.88
21185;BME280;18176;49.502;11.754;2023-01-26T02:50:56;97317.28;;;6.09;58.56
21185;BME280;18176;49.502;11.754;2023-01-26T02:54:57;97324.03;;;5.90;58.99
21185;BME280;18176;49.502;11.754;2023-01-26T02:59:12;97314.53;;;5.89;58.81
21185;BME280;18176;49.502;11.754;2023-01-26T03:03:16;97309.38;;;5.81;58.82
21185;BME280;18176;49.502;11.754;2023-01-26T03:07:17;97315.63;;;5.80;59.02
21185;BME280;18176;49.502;11.754;2023-01-26T03:11:20;97274.91;;;5.48;58.94
21185;BME280;18176;49.502;11.754;2023-01-26T03:15:23;97299.50;;;5.62;59.40
21185;BME280;18176;49.502;11.754;2023-01-26T03:19:35;97283.00;;;5.26;60.14
21185;BME280;18176;49.502;11.754;2023-01-26T03:23:48;97290.06;;;5.46;59.83
21185;BME280;18176;49.502;11.754;2023-01-26T03:28:02;97283.19;;;5.45;59.82
21185;BME280;18176;49.502;11.754;2023-01-26T03:32:06;97284.50;;;5.56;59.70
21185;BME280;18176;49.502;11.754;2023-01-26T03:36:08;97281.13;;;5.41;60.19
21185;BME280;18176;49.502;11.754;2023-01-26T03:40:14;97282.75;;;5.42;60.19
21185;BME280;18176;49.502;11.754;2023-01-26T03:44:26;97288.38;;;5.39;60.35
21185;BME280;18176;49.502;11.754;2023-01-26T03:48:41;97281.50;;;5.38;60.29
21185;BME280;18176;49.502;11.754;2023-01-26T03:52:54;97290.00;;;5.40;60.43
21185;BME280;18176;49.502;11.754;2023-01-26T03:57:07;97291.50;;;5.28;60.41
21185;BME280;18176;49.502;11.754;2023-01-26T04:01:07;97277.00;;;5.32;60.45
21185;BME280;18176;49.502;11.754;2023-01-26T04:05:19;97280.25;;;5.34;60.78
21185;BME280;18176;49.502;11.754;2023-01-26T04:09:33;97283.06;;;5.32;60.82
21185;BME280;18176;49.502;11.754;2023-01-26T04:13:35;97246.09;;;5.13;60.99
21185;BME280;18176;49.502;11.754;2023-01-26T04:17:57;97281.63;;;5.30;60.90
21185;BME280;18176;49.502;11.754;2023-01-26T04:22:13;97282.50;;;5.37;60.77
21185;BME280;18176;49.502;11.754;2023-01-26T04:26:16;97259.56;;;5.24;61.00
21185;BME280;18176;49.502;11.754;2023-01-26T04:30:18;97274.81;;;5.35;61.20
21185;BME280;18176;49.502;11.754;2023-01-26T04:34:18;97257.66;;;5.18;60.86
21185;BME280;18176;49.502;11.754;2023-01-26T04:38:21;97261.50;;;5.16;61.17
21185;BME280;18176;49.502;11.754;2023-01-26T04:42:22;97283.25;;;5.10;61.53
21185;BME280;18176;49.502;11.754;2023-01-26T04:46:24;97268.59;;;5.01;61.56
21185;BME280;18176;49.502;11.754;2023-01-26T04:50:24;97268.25;;;5.04;61.42
21185;BME280;18176;49.502;11.754;2023-01-26T04:54:27;97268.25;;;5.04;61.80
21185;BME280;18176;49.502;11.754;2023-01-26T04:58:28;97251.88;;;5.02;61.29
21185;BME280;18176;49.502;11.754;2023-01-26T05:02:30;97270.59;;;4.98;61.67
21185;BME280;18176;49.502;11.754;2023-01-26T05:06:30;97264.34;;;5.21;61.06
21185;BME280;18176;49.502;11.754;2023-01-26T05:10:33;97236.59;;;5.12;61.04
21185;BME280;18176;49.502;11.754;2023-01-26T05:14:49;97265.53;;;5.18;60.85
21185;BME280;18176;49.502;11.754;2023-01-26T05:19:09;97240.41;;;5.09;60.88
21185;BME280;18176;49.502;11.754;2023-01-26T05:23:17;97271.00;;;5.38;60.64
21185;BME280;18176;49.502;11.754;2023-01-26T05:27:56;97259.56;;;5.24;60.93
21185;BME280;18176;49.502;11.754;2023-01-26T05:31:56;97264.59;;;5.26;60.86
21185;BME280;18176;49.502;11.754;2023-01-26T05:35:57;97253.59;;;5.37;60.65
21185;BME280;18176;49.502;11.754;2023-01-26T05:39:58;97256.72;;;5.26;60.68
21185;BME280;18176;49.502;11.754;2023-01-26T05:44:01;97270.00;;;5.18;60.97
21185;BME280;18176;49.502;11.754;2023-01-26T05:48:09;97272.22;;;5.21;60.90
21185;BME280;18176;49.502;11.754;2023-01-26T05:52:11;97268.38;;;5.17;60.59
21185;BME280;18176;49.502;11.754;2023-01-26T05:56:11;97264.59;;;5.05;60.55
21185;BME280;18176;49.502;11.754;2023-01-26T06:00:21;97271.63;;;5.40;59.77
21185;BME280;18176;49.502;11.754;2023-01-26T06:04:29;97265.13;;;5.15;60.04
21185;BME280;18176;49.502;11.754;2023-01-26T06:08:31;97257.34;;;5.49;59.41
21185;BME280;18176;49.502;11.754;2023-01-26T06:13:00;97252.09;;;5.07;60.11
21185;BME280;18176;49.502;11.754;2023-01-26T06:17:17;97261.88;;;5.13;60.40
21185;BME280;18176;49.502;11.754;2023-01-26T06:21:22;97209.13;;;4.93;59.98
21185;BME280;18176;49.502;11.754;2023-01-26T06:25:22;97271.00;;;5.38;59.81
21185;BME280;18176;49.502;11.754;2023-01-26T06:29:22;97254.72;;;5.28;59.85
21185;BME280;18176;49.502;11.754;2023-01-26T06:33:26;97264.88;;;5.31;60.00
21185;BME280;18176;49.502;11.754;2023-01-26T06:37:27;97267.50;;;5.31;60.26
21185;BME280;18176;49.502;11.754;2023-01-26T06:41:27;97258.38;;;5.27;60.09
21185;BME280;18176;49.502;11.754;2023-01-26T06:45:27;97271.63;;;5.19;60.17
21185;BME280;18176;49.502;11.754;2023-01-26T06:49:30;97260.34;;;5.46;59.96
21185;BME280;18176;49.502;11.754;2023-01-26T06:53:36;97238.41;;;5.60;59.34
21185;BME280;18176;49.502;11.754;2023-01-26T06:57:55;97255.25;;;5.65;59.16
21185;BME280;18176;49.502;11.754;2023-01-26T07:02:18;97235.94;;;5.52;58.89
21185;BME280;18176;49.502;11.754;2023-01-26T07:06:21;97252.28;;;5.75;58.72
21185;BME280;18176;49.502;11.754;2023-01-26T07:10:21;97230.56;;;5.39;58.84
21185;BME280;18176;49.502;11.754;2023-01-26T07:14:21;97264.22;;;5.50;59.33
21185;BME280;18176;49.502;11.754;2023-01-26T07:18:21;97267.94;;;5.62;59.33
21185;BME280;18176;49.502;11.754;2023-01-26T07:22:24;97265.72;;;5.59;59.43
21185;BME280;18176;49.502;11.754;2023-01-26T07:26:24;97255.81;;;5.61;59.52
21185;BME280;18176;49.502;11.754;2023-01-26T07:30:25;97267.56;;;5.65;59.48
21185;BME280;18176;49.502;11.754;2023-01-26T07:34:25;97259.44;;;5.60;59.34
21185;BME280;18176;49.502;11.754;2023-01-26T07:38:28;97263.72;;;5.61;59.21
21185;BME280;18176;49.502;11.754;2023-01-26T07:42:28;97260.25;;;5.60;59.52
21185;BME280;18176;49.502;11.754;2023-01-26T07:46:36;97221.03;;;5.31;59.74
21185;BME280;18176;49.502;11.754;2023-01-26T07:50:41;97239.56;;;5.51;59.85
21185;BME280;18176;49.502;11.754;2023-01-26T07:54:44;97211.09;;;5.27;59.85
21185;BME280;18176;49.502;11.754;2023-01-26T07:58:49;97259.19;;;5.55;59.71
21185;BME280;18176;49.502;11.754;2023-01-26T08:02:50;97262.28;;;5.58;59.35
21185;BME280;18176;49.502;11.754;2023-01-26T08:06:51;97259.50;;;5.66;59.20
21185;BME280;18176;49.502;11.754;2023-01-26T08:10:55;97234.31;;;5.51;59.10
21185;BME280;18176;49.502;11.754;2023-01-26T08:14:56;97261.63;;;5.78;58.73
21185;BME280;18176;49.502;11.754;2023-01-26T08:18:57;97233.28;;;5.73;58.46
21185;BME280;18176;49.502;11.754;2023-01-26T08:22:57;97259.69;;;5.86;58.19
21185;BME280;18176;49.502;11.754;2023-01-26T08:27:00;97257.69;;;5.95;57.87
21185;BME280;18176;49.502;11.754;2023-01-26T08:31:03;97227.84;;;5.81;57.57
21185;BME280;18176;49.502;11.754;2023-01-26T08:35:05;97252.47;;;6.01;57.49
21185;BME280;18176;49.502;11.754;2023-01-26T08:39:05;97225.19;;;5.75;57.34
21185;BME280;18176;49.502;11.754;2023-01-26T08:43:08;97261.00;;;6.03;57.40
21185;BME280;18176;49.502;11.754;2023-01-26T08:47:08;97219.97;;;5.81;57.36
21185;BME280;18176;49.502;11.754;2023-01-26T08:51:09;97261.22;;;6.08;57.31
21185;BME280;18176;49.502;11.754;2023-01-26T08:55:10;97259.84;;;6.12;57.31
21185;BME280;18176;49.502;11.754;2023-01-26T08:59:13;97250.63;;;6.29;57.13
21185;BME280;18176;49.502;11.754;2023-01-26T09:03:13;97236.91;;;6.41;57.14
21185;BME280;18176;49.502;11.754;2023-01-26T09:07:13;97236.53;;;6.44;56.63
21185;BME280;18176;49.502;11.754;2023-01-26T09:11:14;97217.03;;;6.31;55.83
21185;BME280;18176;49.502;11.754;2023-01-26T09:15:16;97241.41;;;6.47;55.69
21185;BME280;18176;49.502;11.754;2023-01-26T09:19:16;97187.06;;;5.92;55.61
21185;BME280;18176;49.502;11.754;2023-01-26T09:23:17;97231.88;;;6.05;55.85
21185;BME280;18176;49.502;11.754;2023-01-26T09:27:17;97244.13;;;6.25;55.54
21185;BME280;18176;49.502;11.754;2023-01-26T09:31:32;97203.97;;;6.10;55.30
21185;BME280;18176;49.502;11.754;2023-01-26T09:35:32;97242.44;;;6.11;55.31
21185;BME280;18176;49.502;11.754;2023-01-26T09:39:33;97250.72;;;6.49;55.29
21185;BME280;18176;49.502;11.754;2023-01-26T09:43:41;97190.66;;;6.18;54.93
21185;BME280;18176;49.502;11.754;2023-01-26T09:48:08;97232.81;;;6.31;55.45
21185;BME280;18176;49.502;11.754;2023-01-26T09:52:21;97221.00;;;6.14;55.97
21185;BME280;18176;49.502;11.754;2023-01-26T09:56:30;97238.94;;;6.45;55.90
21185;BME280;18176;49.502;11.754;2023-01-26T10:00:42;97239.38;;;6.49;55.23
21185;BME280;18176;49.502;11.754;2023-01-26T10:04:52;97232.06;;;6.38;55.31
21185;BME280;18176;49.502;11.754;2023-01-26T10:08:59;97221.19;;;6.54;54.94
21185;BME280;18176;49.502;11.754;2023-01-26T10:13:03;97238.66;;;6.74;54.47
21185;BME280;18176;49.502;11.754;2023-01-26T10:17:04;97240.66;;;6.72;54.38
21185;BME280;18176;49.502;11.754;2023-01-26T10:21:11;97234.41;;;6.73;54.46
21185;BME280;18176;49.502;11.754;2023-01-26T10:25:18;97216.41;;;6.90;54.02
21185;BME280;18176;49.502;11.754;2023-01-26T10:29:21;97206.66;;;6.84;53.76
21185;BME280;18176;49.502;11.754;2023-01-26T10:33:31;97224.94;;;7.05;53.57
21185;BME280;18176;49.502;11.754;2023-01-26T10:37:36;97146.25;;;6.56;53.67
21185;BME280;18176;49.502;11.754;2023-01-26T10:41:38;97152.75;;;6.60;53.72
21185;BME280;18176;49.502;11.754;2023-01-26T10:45:45;97154.38;;;6.68;53.82
21185;BME280;18176;49.502;11.754;2023-01-26T10:49:47;97151.56;;;6.63;53.67
21185;BME280;18176;49.502;11.754;2023-01-26T10:54:16;97140.56;;;6.53;54.16
21185;BME280;18176;49.502;11.754;2023-01-26T10:58:41;97198.94;;;6.63;54.71
21185;BME280;18176;49.502;11.754;2023-01-26T11:02:50;97198.53;;;6.66;54.75
21185;BME280;18176;49.502;11.754;2023-01-26T11:06:51;97182.22;;;6.36;55.20
21185;BME280;18176;49.502;11.754;2023-01-26T11:10:54;97201.34;;;6.58;55.20
21185;BME280;18176;49.502;11.754;2023-01-26T11:15:00;97199.78;;;6.70;54.98
21185;BME280;18176;49.502;11.754;2023-01-26T11:19:10;97193.25;;;6.66;54.59
21185;BME280;18176;49.502;11.754;2023-01-26T11:23:21;97191.28;;;6.81;54.13
21185;BME280;18176;49.502;11.754;2023-01-26T11:27:45;97192.09;;;6.88;54.54
21185;BME280;18176;49.502;11.754;2023-01-26T11:31:56;97180.38;;;6.97;54.03
21185;BME280;18176;49.502;11.754;2023-01-26T11:36:08;97175.09;;;6.97;53.93
21185;BME280;18176;49.502;11.754;2023-01-26T11:40:25;97180.06;;;6.53;54.84
21185;BME280;18176;49.502;11.754;2023-01-26T11:44:54;97176.31;;;7.01;53.98
21185;BME280;18176;49.502;11.754;2023-01-26T11:49:15;97170.44;;;7.05;54.16
21185;BME280;18176;49.502;11.754;2023-01-26T11:53:51;97166.19;;;7.24;53.83
21185;BME280;18176;49.502;11.754;2023-01-26T11:58:16;97160.94;;;7.11;54.18
21185;BME280;18176;49.502;11.754;2023-01-26T12:02:30;97152.41;;;7.22;54.07
21185;BME280;18176;49.502;11.754;2023-01-26T12:06:37;97128.88;;;7.14;54.29
21185;BME280;18176;49.502;11.754;2023-01-26T12:10:46;97145.91;;;7.12;54.43
21185;BME280;18176;49.502;11.754;2023-01-26T12:14:56;97145.09;;;6.72;55.10
21185;BME280;18176;49.502;11.754;2023-01-26T12:19:14;97136.13;;;6.60;55.68
21185;BME280;18176;49.502;11.754;2023-01-26T12:23:28;97136.59;;;6.83;55.23
21185;BME280;18176;49.502;11.754;2023-01-26T12:27:42;97119.97;;;6.89;55.29
21185;BME280;18176;49.502;11.754;2023-01-26T12:31:52;97121.59;;;7.09;55.07
21185;BME280;18176;49.502;11.754;2023-01-26T12:36:24;97119.16;;;7.08;54.38
21185;BME280;18176;49.502;11.754;2023-01-26T12:40:35;97121.41;;;7.11;54.33
21185;BME280;18176;49.502;11.754;2023-01-26T12:44:42;97091.19;;;7.07;53.76
21185;BME280;18176;49.502;11.754;2023-01-26T12:48:48;97082.69;;;6.98;53.77
21185;BME280;18176;49.502;11.754;2023-01-26T12:52:58;97102.94;;;7.31;53.54
21185;BME280;18176;49.502;11.754;2023-01-26T12:57:01;97117.91;;;7.50;53.61
21185;BME280;18176;49.502;11.754;2023-01-26T13:01:09;97085.50;;;7.23;53.77
21185;BME280;18176;49.502;11.754;2023-01-26T13:05:23;97097.19;;;7.66;53.45
21185;BME280;18176;49.502;11.754;2023-01-26T13:09:27;97095.06;;;7.88;52.78
21185;BME280;18176;49.502;11.754;2023-01-26T13:13:31;97092.19;;;8.03;52.36
21185;BME280;18176;49.502;11.754;2023-01-26T13:17:58;97081.63;;;8.03;51.92
21185;BME280;18176;49.502;11.754;2023-01-26T13:21:58;97056.53;;;7.80;52.08
21185;BME280;18176;49.502;11.754;2023-01-26T13:26:23;97085.72;;;7.99;51.83
21185;BME280;18176;49.502;11.754;2023-01-26T13:30:43;97095.91;;;7.89;52.06
21185;BME280;18176;49.502;11.754;2023-01-26T13:34:48;97071.63;;;7.73;52.41
21185;BME280;18176;49.502;11.754;2023-01-26T13:38:57;97086.34;;;7.88;51.70
21185;BME280;18176;49.502;11.754;2023-01-26T13:43:11;97081.81;;;7.57;52.78
21185;BME280;18176;49.502;11.754;2023-01-26T13:47:31;97081.00;;;7.50;53.31
21185;BME280;18176;49.502;11.754;2023-01-26T13:52:02;97088.75;;;7.38;53.74
21185;BME280;18176;49.502;11.754;2023-01-26T13:56:19;97023.53;;;7.01;53.15
21185;BME280;18176;49.502;11.754;2023-01-26T14:00:23;96980.00;;;6.53;53.85
21185;BME280;18176;49.502;11.754;2023-01-26T14:04:30;97014.22;;;6.66;53.96
21185;BME280;18176;49.502;11.754;2023-01-26T14:08:33;97083.09;;;7.15;53.78
21185;BME280;18176;49.502;11.754;2023-01-26T14:12:42;97057.75;;;7.01;53.33
21185;BME280;18176;49.502;11.754;2023-01-26T14:16:47;97063.22;;;7.13;53.46
21185;BME280;18176;49.502;11.754;2023-01-26T14:21:03;96971.13;;;6.54;53.48
21185;BME280;18176;49.502;11.754;2023-01-26T14:25:09;97074.38;;;7.08;53.53
21185;BME280;18176;49.502;11.754;2023-01-26T14:29:20;97073.97;;;6.91;53.91
21185;BME280;18176;49.502;11.754;2023-01-26T14:33:24;97077.44;;;6.79;54.37
21185;BME280;18176;49.502;11.754;2023-01-26T14:37:26;97084.91;;;6.82;54.13
21185;BME280;18176;49.502;11.754;2023-01-26T14:41:30;97095.66;;;6.87;54.50
21185;BME280;18176;49.502;11.754;2023-01-26T14:45:31;97085.94;;;6.74;54.11
21185;BME280;18176;49.502;11.754;2023-01-26T14:49:45;97105.81;;;6.77;54.42
21185;BME280;18176;49.502;11.754;2023-01-26T14:53:50;97112.44;;;6.60;55.14
21185;BME280;18176;49.502;11.754;2023-01-26T14:57:51;97113.03;;;6.55;55.22
21185;BME280;18176;49.502;11.754;2023-01-26T15:02:12;97100.03;;;6.27;55.60
21185;BME280;18176;49.502;11.754;2023-01-26T15:06:26;97064.75;;;6.09;55.63
21185;BME280;18176;49.502;11.754;2023-01-26T15:10:34;97113.00;;;6.35;55.69
21185;BME280;18176;49.502;11.754;2023-01-26T15:14:37;97113.84;;;6.49;55.63
21185;BME280;18176;49.502;11.754;2023-01-26T15:18:57;97110.19;;;6.44;55.71
21185;BME280;18176;49.502;11.754;2023-01-26T15:23:00;97112.59;;;6.45;55.70
21185;BME280;18176;49.502;11.754;2023-01-26T15:27:06;97110.22;;;6.57;55.43
21185;BME280;18176;49.502;11.754;2023-01-26T15:31:07;97101.72;;;6.61;55.17
21185;BME280;18176;49.502;11.754;2023-01-26T15:35:23;97114.25;;;6.40;56.01
21185;BME280;18176;49.502;11.754;2023-01-26T15:39:26;97108.75;;;6.41;55.91
21185;BME280;18176;49.502;11.754;2023-01-26T15:43:27;97109.19;;;6.45;56.07
21185;BME280;18176;49.502;11.754;2023-01-26T15:47:27;97122.75;;;6.48;56.06
21185;BME280;18176;49.502;11.754;2023-01-26T15:51:30;97062.72;;;6.04;56.03
21185;BME280;18176;49.502;11.754;2023-01-26T15:55:34;97132.81;;;6.31;56.42
21185;BME280;18176;49.502;11.754;2023-01-26T15:59:34;97127.56;;;6.31;56.33
21185;BME280;18176;49.502;11.754;2023-01-26T16:03:34;97124.28;;;6.16;56.86
21185;BME280;18176;49.502;11.754;2023-01-26T16:07:35;97125.50;;;6.20;56.79
21185;BME280;18176;49.502;11.754;2023-01-26T16:11:45;97134.38;;;6.19;56.62
21185;BME280;18176;49.502;11.754;2023-01-26T16:15:48;97140.88;;;6.17;56.68
21185;BME280;18176;49.502;11.754;2023-01-26T16:19:49;97125.09;;;6.17;56.65
21185;BME280;18176;49.502;11.754;2023-01-26T16:23:50;97137.25;;;6.24;56.62
21185;BME280;18176;49.502;11.754;2023-01-26T16:27:54;97112.97;;;6.22;56.34
21185;BME280;18176;49.502;11.754;2023-01-26T16:31:54;97137.31;;;6.38;56.09
21185;BME280;18176;49.502;11.754;2023-01-26T16:35:54;97140.91;;;6.30;56.20
21185;BME280;18176;49.502;11.754;2023-01-26T16:39:54;97131.81;;;6.32;56.22
21185;BME280;18176;49.502;11.754;2023-01-26T16:43:59;97116.81;;;6.26;56.08
21185;BME280;18176;49.502;11.754;2023-01-26T16:48:00;97138.88;;;6.19;56.93
21185;BME280;18176;49.502;11.754;2023-01-26T16:52:00;97131.72;;;6.06;57.01
21185;BME280;18176;49.502;11.754;2023-01-26T16:56:01;97140.03;;;6.10;57.16
21185;BME280;18176;49.502;11.754;2023-01-26T17:00:05;97133.78;;;6.17;57.14
21185;BME280;18176;49.502;11.754;2023-01-26T17:04:08;97127.50;;;6.05;57.50
21185;BME280;18176;49.502;11.754;2023-01-26T17:08:08;97128.94;;;6.14;57.55
21185;BME280;18176;49.502;11.754;2023-01-26T17:12:09;97122.66;;;6.15;57.52
21185;BME280;18176;49.502;11.754;2023-01-26T17:16:16;97137.84;;;6.20;57.47
21185;BME280;18176;49.502;11.754;2023-01-26T17:20:17;97127.09;;;6.15;57.54
21185;BME280;18176;49.502;11.754;2023-01-26T17:24:17;97118.22;;;6.22;57.40
21185;BME280;18176;49.502;11.754;2023-01-26T17:28:17;97123.91;;;6.26;57.10
21185;BME280;18176;49.502;11.754;2023-01-26T17:32:20;97134.38;;;6.19;57.33
21185;BME280;18176;49.502;11.754;2023-01-26T17:36:22;97138.63;;;6.07;57.58
21185;BME280;18176;49.502;11.754;2023-01-26T17:40:22;97142.56;;;5.56;58.95
21185;BME280;18176;49.502;11.754;2023-01-26T17:44:23;97124.97;;;5.22;59.65
21185;BME280;18176;49.502;11.754;2023-01-26T17:48:26;97139.47;;;5.80;58.78
21185;BME280;18176;49.502;11.754;2023-01-26T17:52:27;97137.47;;;5.82;58.74
21185;BME280;18176;49.502;11.754;2023-01-26T17:56:27;97147.75;;;5.43;59.53
21185;BME280;18176;49.502;11.754;2023-01-26T18:00:27;97123.22;;;5.63;58.65
21185;BME280;18176;49.502;11.754;2023-01-26T18:04:30;97137.38;;;5.69;58.57
21185;BME280;18176;49.502;11.754;2023-01-26T18:08:31;97135.50;;;5.29;59.46
21185;BME280;18176;49.502;11.754;2023-01-26T18:12:31;97144.63;;;5.33;59.08
21185;BME280;18176;49.502;11.754;2023-01-26T18:16:33;97141.63;;;5.36;58.92
21185;BME280;18176;49.502;11.754;2023-01-26T18:20:36;97147.69;;;5.36;59.00
21185;BME280;18176;49.502;11.754;2023-01-26T18:24:36;97135.81;;;5.13;59.28
21185;BME280;18176;49.502;11.754;2023-01-26T18:28:38;97146.78;;;5.23;59.32
21185;BME280;18176;49.502;11.754;2023-01-26T18:32:39;97153.25;;;5.20;59.51
21185;BME280;18176;49.502;11.754;2023-01-26T18:36:41;97157.94;;;5.04;59.64
21185;BME280;18176;49.502;11.754;2023-01-26T18:40:42;97155.84;;;4.92;60.25
21185;BME280;18176;49.502;11.754;2023-01-26T18:44:42;97127.75;;;5.21;59.02
21185;BME280;18176;49.502;11.754;2023-01-26T18:48:42;97162.59;;;5.57;58.88
21185;BME280;18176;49.502;11.754;2023-01-26T18:52:45;97117.53;;;5.32;58.83
21185;BME280;18176;49.502;11.754;2023-01-26T18:56:45;97157.34;;;5.57;58.68
21185;BME280;18176;49.502;11.754;2023-01-26T19:00:46;97149.66;;;5.62;58.22
21185;BME280;18176;49.502;11.754;2023-01-26T19:04:46;97162.06;;;5.68;57.96
21185;BME280;18176;49.502;11.754;2023-01-26T19:08:57;97133.75;;;5.36;58.21
21185;BME280;18176;49.502;11.754;2023-01-26T19:12:58;97152.59;;;5.46;57.85
21185;BME280;18176;49.502;11.754;2023-01-26T19:17:00;97151.06;;;5.58;57.42
21185;BME280;18176;49.502;11.754;2023-01-26T19:21:03;97146.19;;;5.55;57.57
21185;BME280;18176;49.502;11.754;2023-01-26T19:25:07;97136.94;;;5.59;57.41
21185;BME280;18176;49.502;11.754;2023-01-26T19:29:09;97144.25;;;5.63;57.22
21185;BME280;18176;49.502;11.754;2023-01-26T19:33:10;97145.81;;;5.58;56.91
21185;BME280;18176;49.502;11.754;2023-01-26T19:37:25;97083.66;;;5.10;56.71
21185;BME280;18176;49.502;11.754;2023-01-26T19:41:27;97144.81;;;5.59;56.51
21185;BME280;18176;49.502;11.754;2023-01-26T19:45:30;97144.94;;;5.51;56.65
21185;BME280;18176;49.502;11.754;2023-01-26T19:49:31;97141.78;;;5.62;56.83
21185;BME280;18176;49.502;11.754;2023-01-26T19:53:33;97115.91;;;5.59;56.92
21185;BME280;18176;49.502;11.754;2023-01-26T19:57:36;97103.78;;;5.03;57.75
21185;BME280;18176;49.502;11.754;2023-01-26T20:01:36;97144.00;;;5.31;57.75
21185;BME280;18176;49.502;11.754;2023-01-26T20:05:37;97143.53;;;5.21;58.03
21185;BME280;18176;49.502;11.754;2023-01-26T20:09:37;97146.78;;;5.23;57.88
21185;BME280;18176;49.502;11.754;2023-01-26T20:13:40;97127.44;;;5.03;57.50
21185;BME280;18176;49.502;11.754;2023-01-26T20:17:40;97154.03;;;5.21;57.90
21185;BME280;18176;49.502;11.754;2023-01-26T20:21:41;97155.34;;;5.31;57.74
21185;BME280;18176;49.502;11.754;2023-01-26T20:25:42;97152.50;;;5.33;58.03
21185;BME280;18176;49.502;11.754;2023-01-26T20:29:45;97157.41;;;5.36;57.53
21185;BME280;18176;49.502;11.754;2023-01-26T20:33:47;97155.06;;;5.20;57.91
21185;BME280;18176;49.502;11.754;2023-01-26T20:37:47;97151.56;;;5.13;58.12
21185;BME280;18176;49.502;11.754;2023-01-26T20:41:48;97149.41;;;5.23;58.24
21185;BME280;18176;49.502;11.754;2023-01-26T20:45:51;97147.53;;;5.17;58.13
21185;BME280;18176;49.502;11.754;2023-01-26T20:49:51;97163.53;;;5.22;58.22
21185;BME280;18176;49.502;11.754;2023-01-26T20:53:52;97161.28;;;5.19;58.06
21185;BME280;18176;49.502;11.754;2023-01-26T20:57:52;97131.38;;;5.13;58.02
21185;BME280;18176;49.502;11.754;2023-01-26T21:01:55;97124.69;;;5.11;57.84
21185;BME280;18176;49.502;11.754;2023-01-26T21:05:55;97156.94;;;5.32;58.16
21185;BME280;18176;49.502;11.754;2023-01-26T21:09:55;97117.41;;;5.13;58.15
21185;BME280;18176;49.502;11.754;2023-01-26T21:13:57;97145.16;;;5.22;58.00
21185;BME280;18176;49.502;11.754;2023-01-26T21:18:01;97136.25;;;5.23;57.90
21185;BME280;18176;49.502;11.754;2023-01-26T21:22:02;97142.28;;;5.17;58.03
21185;BME280;18176;49.502;11.754;2023-01-26T21:26:05;97117.22;;;5.14;57.78
21185;BME280;18176;49.502;11.754;2023-01-26T21:30:08;97100.56;;;5.01;58.06
21185;BME280;18176;49.502;11.754;2023-01-26T21:34:11;97124.16;;;5.22;57.91
21185;BME280;18176;49.502;11.754;2023-01-26T21:38:11;97136.38;;;5.36;58.02